sensor_id;sensor_type;location;lat;lon;timestamp;pressure;altitude;pressure_sealevel;temperature;humidity
74431;BME280;62863;52.062;23.764;2024-02-26T00:04:42;1017.7;;;10.5;79.9
74431;BME280;62863;52.062;23.764;2024-02-26T00:09:46;1017.6;;;10.4;80
74431;BME280;62863;52.062;23.764;2024-02-26T00:14:24;1017.6;;;10.4;80.5
74431;BME280;62863;52.062;23.764;2024-02-26T00:19:22;1017.6;;;10.4;81.1
74431;BME280;62863;52.062;23.764;2024-02-26T00:25:00;1017.6;;;10.4;81.3
74431;BME280;62863;52.062;23.764;2024-02-26T00:29:38;1017.6;;;10.4;81.2
74431;BME280;62863;52.062;23.764;2024-02-26T00:35:02;1017.6;;;10.4;81.1
74431;BME280;62863;52.062;23.764;2024-02-26T00:39:30;1017.6;;;10.4;81
74431;BME280;62863;52.062;23.764;2024-02-26T00:44:52;1017.5;;;10.3;81
74431;BME280;62863;52.062;23.764;2024-02-26T00:49:38;1017.5;;;10.3;80.8
74431;BME280;62863;52.062;23.764;2024-02-26T00:54:40;1017.5;;;10.2;80.9
74431;BME280;62863;52.062;23.764;2024-02-26T00:59:54;1017.5;;;10.2;81.1
74431;BME280;62863;52.062;23.764;2024-02-26T01:05:04;1017.4;;;10.1;81.6
74431;BME280;62863;52.062;23.764;2024-02-26T01:09:22;1017.4;;;10.1;81.6
74431;BME280;62863;52.062;23.764;2024-02-26T01:15:04;1017.1;;;10.1;82.5
74431;BME280;62863;52.062;23.764;2024-02-26T01:20:04;1017.1;;;10.1;82.3
74431;BME280;62863;52.062;23.764;2024-02-26T01:24:54;1017.1;;;10.1;82.3
74431;BME280;62863;52.062;23.764;2024-02-26T01:29:44;1017;;;10.1;82.4
74431;BME280;62863;52.062;23.764;2024-02-26T01:34:24;1017;;;10.1;82
74431;BME280;62863;52.062;23.764;2024-02-26T01:39:22;1017;;;10.1;82.3
74431;BME280;62863;52.062;23.764;2024-02-26T01:44:38;1017;;;10.1;81.9
74431;BME280;62863;52.062;23.764;2024-02-26T01:50:02;1017;;;10.1;81.7
74431;BME280;62863;52.062;23.764;2024-02-26T01:54:38;1017;;;10.1;81.7
74431;BME280;62863;52.062;23.764;2024-02-26T01:59:24;1017;;;10;81.8
74431;BME280;62863;52.062;23.764;2024-02-26T02:04:22;1017;;;10;81.8
74431;BME280;62863;52.062;23.764;2024-02-26T02:09:36;1017.1;;;10;82.5
74431;BME280;62863;52.062;23.764;2024-02-26T02:14:38;1017.2;;;10;82.8
74431;BME280;62863;52.062;23.764;2024-02-26T02:19:52;1017.2;;;9.9;82.6
74431;BME280;62863;52.062;23.764;2024-02-26T02:24:46;1017.2;;;9.9;82.9
74431;BME280;62863;52.062;23.764;2024-02-26T02:29:48;1017.2;;;9.9;82.9
74431;BME280;62863;52.062;23.764;2024-02-26T02:35:04;1017;;;9.9;82.5
74431;BME280;62863;52.062;23.764;2024-02-26T02:39:46;1017;;;9.9;82.5
74431;BME280;62863;52.062;23.764;2024-02-26T02:44:36;1017;;;9.9;82.3
74431;BME280;62863;52.062;23.764;2024-02-26T02:49:52;1017;;;9.9;82.3
74431;BME280;62863;52.062;23.764;2024-02-26T02:54:54;1017;;;9.9;82.4
74431;BME280;62863;52.062;23.764;2024-02-26T02:59:24;1017;;;9.9;82.4
74431;BME280;62863;52.062;23.764;2024-02-26T03:04:44;1017.1;;;9.9;82.6
74431;BME280;62863;52.062;23.764;2024-02-26T03:09:22;1017.1;;;9.9;82.7
74431;BME280;62863;52.062;23.764;2024-02-26T03:14:22;1017.2;;;9.9;82.6
74431;BME280;62863;52.062;23.764;2024-02-26T03:19:30;1017.2;;;9.9;82.9
74431;BME280;62863;52.062;23.764;2024-02-26T03:24:30;1017.2;;;9.9;83
74431;BME280;62863;52.062;23.764;2024-02-26T03:29:30;1017.4;;;9.9;83
74431;BME280;62863;52.062;23.764;2024-02-26T03:34:32;1017.4;;;9.9;83
74431;BME280;62863;52.062;23.764;2024-02-26T03:39:38;1017.4;;;9.9;82.8
74431;BME280;62863;52.062;23.764;2024-02-26T03:45:04;1017.3;;;9.9;82.8
74431;BME280;62863;52.062;23.764;2024-02-26T03:49:38;1017.3;;;9.9;82.8
74431;BME280;62863;52.062;23.764;2024-02-26T03:54:40;1017.2;;;9.9;82.9
74431;BME280;62863;52.062;23.764;2024-02-26T03:59:30;1017.2;;;9.9;82.8
74431;BME280;62863;52.062;23.764;2024-02-26T04:04:48;1017.2;;;9.9;82.6
74431;BME280;62863;52.062;23.764;2024-02-26T04:09:54;1017.1;;;9.8;82.3
74431;BME280;62863;52.062;23.764;2024-02-26T04:14:30;1017.1;;;9.8;82.4
74431;BME280;62863;52.062;23.764;2024-02-26T04:19:42;1017.1;;;9.7;82.4
74431;BME280;62863;52.062;23.764;2024-02-26T04:24:52;1017.1;;;9.7;82.5
74431;BME280;62863;52.062;23.764;2024-02-26T04:30:04;1017.2;;;9.7;83.2
74431;BME280;62863;52.062;23.764;2024-02-26T04:34:44;1017.2;;;9.7;83.2
74431;BME280;62863;52.062;23.764;2024-02-26T04:40:05;1017.2;;;9.7;83.5
74431;BME280;62863;52.062;23.764;2024-02-26T04:44:22;1017.2;;;9.7;83.5
74431;BME280;62863;52.062;23.764;2024-02-26T04:49:30;1017.3;;;9.7;83.6
74431;BME280;62863;52.062;23.764;2024-02-26T04:54:34;1017.4;;;9.8;83.4
74431;BME280;62863;52.062;23.764;2024-02-26T04:59:38;1017.3;;;9.8;83.3
74431;BME280;62863;52.062;23.764;2024-02-26T05:04:22;1017.4;;;9.8;83.1
74431;BME280;62863;52.062;23.764;2024-02-26T05:10:04;1017.4;;;9.7;82.4
74431;BME280;62863;52.062;23.764;2024-02-26T05:14:50;1017.4;;;9.7;82.4
74431;BME280;62863;52.062;23.764;2024-02-26T05:20:02;1017.4;;;9.7;82.5
74431;BME280;62863;52.062;23.764;2024-02-26T05:25:00;1017.3;;;9.7;82.5
74431;BME280;62863;52.062;23.764;2024-02-26T05:29:30;1017.3;;;9.6;82.6
74431;BME280;62863;52.062;23.764;2024-02-26T05:35:02;1017.4;;;9.7;83.3
74431;BME280;62863;52.062;23.764;2024-02-26T05:40:00;1017.4;;;9.7;83.5
74431;BME280;62863;52.062;23.764;2024-02-26T05:44:52;1017.6;;;9.7;83.6
74431;BME280;62863;52.062;23.764;2024-02-26T05:50:02;1017.6;;;9.7;83.3
74431;BME280;62863;52.062;23.764;2024-02-26T05:54:48;1017.6;;;9.7;83.2
74431;BME280;62863;52.062;23.764;2024-02-26T05:59:54;1017.7;;;9.7;82.9
74431;BME280;62863;52.062;23.764;2024-02-26T06:05:02;1017.7;;;9.7;82.9
74431;BME280;62863;52.062;23.764;2024-02-26T06:09:42;1017.7;;;9.7;82.7
74431;BME280;62863;52.062;23.764;2024-02-26T06:15:02;1017.8;;;9.7;82.5
74431;BME280;62863;52.062;23.764;2024-02-26T06:19:42;1017.8;;;9.7;82.2
74431;BME280;62863;52.062;23.764;2024-02-26T06:24:44;1017.7;;;9.7;82.1
74431;BME280;62863;52.062;23.764;2024-02-26T06:29:52;1017.7;;;9.7;82
74431;BME280;62863;52.062;23.764;2024-02-26T06:34:38;1017.8;;;9.7;82.3
74431;BME280;62863;52.062;23.764;2024-02-26T06:39:30;1017.8;;;9.7;82.7
74431;BME280;62863;52.062;23.764;2024-02-26T06:45:00;1017.8;;;9.8;82.8
74431;BME280;62863;52.062;23.764;2024-02-26T06:49:52;1017.8;;;9.8;82.6
74431;BME280;62863;52.062;23.764;2024-02-26T06:55:00;1017.9;;;9.8;82.4
74431;BME280;62863;52.062;23.764;2024-02-26T06:59:52;1017.9;;;9.8;82.2
74431;BME280;62863;52.062;23.764;2024-02-26T07:04:42;1017.9;;;9.8;82.1
74431;BME280;62863;52.062;23.764;2024-02-26T07:10:00;1017.9;;;9.9;81.8
74431;BME280;62863;52.062;23.764;2024-02-26T07:15:00;1018;;;10;81.5
74431;BME280;62863;52.062;23.764;2024-02-26T07:19:50;1018;;;10;81.2
74431;BME280;62863;52.062;23.764;2024-02-26T07:24:38;1018;;;10;81
74431;BME280;62863;52.062;23.764;2024-02-26T07:29:46;1018;;;10.1;81
74431;BME280;62863;52.062;23.764;2024-02-26T07:34:30;1018;;;10.1;81.3
74431;BME280;62863;52.062;23.764;2024-02-26T07:40:00;1018.1;;;10.2;81.3
74431;BME280;62863;52.062;23.764;2024-02-26T07:44:50;1018.1;;;10.4;81.2
74431;BME280;62863;52.062;23.764;2024-02-26T07:50:00;1018.1;;;10.4;80.6
74431;BME280;62863;52.062;23.764;2024-02-26T07:54:50;1018.1;;;10.4;80.8
74431;BME280;62863;52.062;23.764;2024-02-26T07:59:58;1018.2;;;10.5;80
74431;BME280;62863;52.062;23.764;2024-02-26T08:04:22;1018.2;;;10.6;79.7
74431;BME280;62863;52.062;23.764;2024-02-26T08:09:22;1018.3;;;10.7;79.3
74431;BME280;62863;52.062;23.764;2024-02-26T08:14:30;1018.3;;;10.8;79
74431;BME280;62863;52.062;23.764;2024-02-26T08:19:30;1018.3;;;10.9;78.6
74431;BME280;62863;52.062;23.764;2024-02-26T08:24:44;1018.3;;;10.9;78.6
74431;BME280;62863;52.062;23.764;2024-02-26T08:29:38;1018.3;;;10.9;78.5
74431;BME280;62863;52.062;23.764;2024-02-26T08:35:02;1018.3;;;10.9;78.8
74431;BME280;62863;52.062;23.764;2024-02-26T08:39:22;1018.4;;;10.9;78.7
74431;BME280;62863;52.062;23.764;2024-02-26T08:45:01;1018.4;;;11.1;78.8
74431;BME280;62863;52.062;23.764;2024-02-26T08:49:23;1018.4;;;11.3;78
74431;BME280;62863;52.062;23.764;2024-02-26T08:54:50;1018.5;;;11.5;77.3
74431;BME280;62863;52.062;23.764;2024-02-26T08:59:22;1018.5;;;11.5;77
74431;BME280;62863;52.062;23.764;2024-02-26T09:04:46;1018.6;;;11.3;76.7
74431;BME280;62863;52.062;23.764;2024-02-26T09:10:00;1018.6;;;11.2;77.2
74431;BME280;62863;52.062;23.764;2024-02-26T09:14:30;1018.6;;;11.1;77.2
74431;BME280;62863;52.062;23.764;2024-02-26T09:19:22;1018.6;;;11.1;77.4
74431;BME280;62863;52.062;23.764;2024-02-26T09:25:00;1018.6;;;11.1;77.2
74431;BME280;62863;52.062;23.764;2024-02-26T09:29:54;1018.6;;;11.1;77.7
74431;BME280;62863;52.062;23.764;2024-02-26T09:34:24;1018.6;;;11.3;77.9
74431;BME280;62863;52.062;23.764;2024-02-26T09:39:52;1018.7;;;11.3;78
74431;BME280;62863;52.062;23.764;2024-02-26T09:44:22;1018.6;;;11.4;77.6
74431;BME280;62863;52.062;23.764;2024-02-26T09:49:47;1018.7;;;11.6;77.8
74431;BME280;62863;52.062;23.764;2024-02-26T09:54:22;1018.7;;;11.5;76.7
74431;BME280;62863;52.062;23.764;2024-02-26T09:59:22;1018.8;;;11.5;77.2
74431;BME280;62863;52.062;23.764;2024-02-26T10:04:22;1018.9;;;11.4;77.3
74431;BME280;62863;52.062;23.764;2024-02-26T10:09:30;1018.9;;;11.3;77.1
74431;BME280;62863;52.062;23.764;2024-02-26T10:14:22;1018.9;;;11.3;77.2
74431;BME280;62863;52.062;23.764;2024-02-26T10:20:11;1018.9;;;11.3;77
74431;BME280;62863;52.062;23.764;2024-02-26T10:24:53;1019;;;11.5;77.2
74431;BME280;62863;52.062;23.764;2024-02-26T10:29:48;1019;;;11.5;76.7
74431;BME280;62863;52.062;23.764;2024-02-26T10:34:38;1019;;;11.5;76.3
74431;BME280;62863;52.062;23.764;2024-02-26T10:39:48;1018.9;;;11.5;76.1
74431;BME280;62863;52.062;23.764;2024-02-26T10:44:32;1018.9;;;11.8;75.5
74431;BME280;62863;52.062;23.764;2024-02-26T10:49:30;1018.9;;;11.9;74.9
74431;BME280;62863;52.062;23.764;2024-02-26T10:54:23;1018.9;;;11.9;74.7
74431;BME280;62863;52.062;23.764;2024-02-26T10:59:40;1018.9;;;11.8;75.1
74431;BME280;62863;52.062;23.764;2024-02-26T11:05:05;1018.8;;;11.9;75.5
74431;BME280;62863;52.062;23.764;2024-02-26T11:09:44;1018.8;;;11.9;75.5
74431;BME280;62863;52.062;23.764;2024-02-26T11:14:54;1018.9;;;12.1;75.6
74431;BME280;62863;52.062;23.764;2024-02-26T11:19:38;1018.8;;;12.1;75.2
74431;BME280;62863;52.062;23.764;2024-02-26T11:25:03;1018.8;;;12.2;75.5
74431;BME280;62863;52.062;23.764;2024-02-26T11:29:37;1018.8;;;12.3;74.8
74431;BME280;62863;52.062;23.764;2024-02-26T11:34:30;1018.8;;;12.3;74.4
74431;BME280;62863;52.062;23.764;2024-02-26T11:39:52;1018.8;;;12.3;74.6
74431;BME280;62863;52.062;23.764;2024-02-26T11:45:05;1018.8;;;12.2;75
74431;BME280;62863;52.062;23.764;2024-02-26T11:49:54;1018.8;;;12.2;75
74431;BME280;62863;52.062;23.764;2024-02-26T11:55:05;1018.9;;;12.4;75.2
74431;BME280;62863;52.062;23.764;2024-02-26T11:59:55;1018.9;;;12.4;75.2
74431;BME280;62863;52.062;23.764;2024-02-26T12:04:32;1018.8;;;12.5;75
74431;BME280;62863;52.062;23.764;2024-02-26T12:09:31;1018.8;;;12.7;74.8
74431;BME280;62863;52.062;23.764;2024-02-26T12:14:50;1018.8;;;13;74
74431;BME280;62863;52.062;23.764;2024-02-26T12:19:38;1018.7;;;13.4;73.4
74431;BME280;62863;52.062;23.764;2024-02-26T12:24:38;1018.7;;;13.6;72.5
74431;BME280;62863;52.062;23.764;2024-02-26T12:29:36;1018.8;;;13.7;72
74431;BME280;62863;52.062;23.764;2024-02-26T12:34:54;1018.8;;;13.7;71.8
74431;BME280;62863;52.062;23.764;2024-02-26T12:40:05;1018.9;;;13.5;71.6
74431;BME280;62863;52.062;23.764;2024-02-26T12:44:37;1018.9;;;13.5;71.6
74431;BME280;62863;52.062;23.764;2024-02-26T12:50:05;1019;;;13.1;72.2
74431;BME280;62863;52.062;23.764;2024-02-26T12:54:31;1019;;;13.1;72.2
74431;BME280;62863;52.062;23.764;2024-02-26T12:59:22;1019;;;12.9;72.6
74431;BME280;62863;52.062;23.764;2024-02-26T13:04:24;1019;;;12.8;73.3
74431;BME280;62863;52.062;23.764;2024-02-26T13:09:38;1019.1;;;12.8;73.1
74431;BME280;62863;52.062;23.764;2024-02-26T13:14:34;1019;;;12.9;72.9
74431;BME280;62863;52.062;23.764;2024-02-26T13:20:03;1019;;;12.9;72.9
74431;BME280;62863;52.062;23.764;2024-02-26T13:30:03;1019;;;12.7;73.7
74431;BME280;62863;52.062;23.764;2024-02-26T13:35:05;1019;;;12.5;73.9
74431;BME280;62863;52.062;23.764;2024-02-26T13:39:22;1019;;;12.5;73.9
74431;BME280;62863;52.062;23.764;2024-02-26T13:45:05;1019.1;;;12.4;74.7
74431;BME280;62863;52.062;23.764;2024-02-26T13:49:42;1019.1;;;12.4;74.7
74431;BME280;62863;52.062;23.764;2024-02-26T13:54:54;1019.1;;;12.4;75
74431;BME280;62863;52.062;23.764;2024-02-26T13:59:38;1019.2;;;12.3;75.9
74431;BME280;62863;52.062;23.764;2024-02-26T14:04:40;1019.2;;;12.3;76.7
74431;BME280;62863;52.062;23.764;2024-02-26T14:09:46;1019.1;;;12.2;77.1
74431;BME280;62863;52.062;23.764;2024-02-26T14:15:07;1019.2;;;12.3;77.6
74431;BME280;62863;52.062;23.764;2024-02-26T14:19:44;1019.2;;;12.3;77.6
74431;BME280;62863;52.062;23.764;2024-02-26T14:25:04;1019.2;;;12.3;77.2
74431;BME280;62863;52.062;23.764;2024-02-26T14:29:36;1019.2;;;12.3;77.2
74431;BME280;62863;52.062;23.764;2024-02-26T14:34:48;1019.2;;;12.3;77
74431;BME280;62863;52.062;23.764;2024-02-26T14:39:44;1019.2;;;12.2;77.2
74431;BME280;62863;52.062;23.764;2024-02-26T14:44:30;1019.2;;;12.2;77.9
74431;BME280;62863;52.062;23.764;2024-02-26T14:49:54;1019.2;;;12.1;78.8
74431;BME280;62863;52.062;23.764;2024-02-26T14:54:30;1019.1;;;12.1;78.5
74431;BME280;62863;52.062;23.764;2024-02-26T14:59:54;1019.2;;;12;78.4
74431;BME280;62863;52.062;23.764;2024-02-26T15:04:38;1019.2;;;12;78.8
74431;BME280;62863;52.062;23.764;2024-02-26T15:10:03;1019.2;;;11.9;79
74431;BME280;62863;52.062;23.764;2024-02-26T15:14:38;1019.1;;;11.8;79.4
74431;BME280;62863;52.062;23.764;2024-02-26T15:19:26;1019.2;;;11.8;80.1
74431;BME280;62863;52.062;23.764;2024-02-26T15:24:38;1019.2;;;11.8;80.9
74431;BME280;62863;52.062;23.764;2024-02-26T15:29:50;1019.3;;;11.8;81.4
74431;BME280;62863;52.062;23.764;2024-02-26T15:34:36;1019.3;;;11.8;81.4
74431;BME280;62863;52.062;23.764;2024-02-26T15:39:48;1019.4;;;11.8;81.1
74431;BME280;62863;52.062;23.764;2024-02-26T15:45:05;1019.5;;;11.8;80.7
74431;BME280;62863;52.062;23.764;2024-02-26T15:49:32;1019.5;;;11.8;80.7
74431;BME280;62863;52.062;23.764;2024-02-26T15:54:52;1019.5;;;11.8;80.5
74431;BME280;62863;52.062;23.764;2024-02-26T16:00:05;1019.5;;;11.7;80.5
74431;BME280;62863;52.062;23.764;2024-02-26T16:05:03;1019.5;;;11.7;80.5
74431;BME280;62863;52.062;23.764;2024-02-26T16:09:54;1019.6;;;11.7;80.4
74431;BME280;62863;52.062;23.764;2024-02-26T16:14:25;1019.6;;;11.6;80.6
74431;BME280;62863;52.062;23.764;2024-02-26T16:19:24;1019.6;;;11.6;81.1
74431;BME280;62863;52.062;23.764;2024-02-26T16:24:39;1019.7;;;11.5;82
74431;BME280;62863;52.062;23.764;2024-02-26T16:29:32;1019.7;;;11.4;82.5
74431;BME280;62863;52.062;23.764;2024-02-26T16:34:22;1019.7;;;11.4;82.4
74431;BME280;62863;52.062;23.764;2024-02-26T16:39:52;1019.8;;;11.4;82.5
74431;BME280;62863;52.062;23.764;2024-02-26T16:44:47;1019.9;;;11.4;82.6
74431;BME280;62863;52.062;23.764;2024-02-26T16:49:45;1020;;;11.4;82.3
74431;BME280;62863;52.062;23.764;2024-02-26T16:55:04;1020;;;11.5;81.9
74431;BME280;62863;52.062;23.764;2024-02-26T16:59:29;1020.1;;;11.5;81.5
74431;BME280;62863;52.062;23.764;2024-02-26T17:04:53;1020.1;;;11.6;81.1
74431;BME280;62863;52.062;23.764;2024-02-26T17:09:31;1020.1;;;11.6;80.9
74431;BME280;62863;52.062;23.764;2024-02-26T17:14:46;1020.1;;;11.6;80.7
74431;BME280;62863;52.062;23.764;2024-02-26T17:20:03;1019.9;;;11.7;80.5
74431;BME280;62863;52.062;23.764;2024-02-26T17:25:03;1019.9;;;11.7;80.5
74431;BME280;62863;52.062;23.764;2024-02-26T17:29:22;1020.1;;;11.7;80.4
74431;BME280;62863;52.062;23.764;2024-02-26T17:34:49;1020.2;;;11.7;80.3
74431;BME280;62863;52.062;23.764;2024-02-26T17:40:03;1020.2;;;11.7;80
74431;BME280;62863;52.062;23.764;2024-02-26T17:44:55;1020.2;;;11.7;79.4
74431;BME280;62863;52.062;23.764;2024-02-26T17:49:45;1020.2;;;11.6;79.2
74431;BME280;62863;52.062;23.764;2024-02-26T17:54:23;1020.1;;;11.6;79
74431;BME280;62863;52.062;23.764;2024-02-26T17:59:37;1020.1;;;11.6;78.8
74431;BME280;62863;52.062;23.764;2024-02-26T18:04:31;1020.2;;;11.5;78.6
74431;BME280;62863;52.062;23.764;2024-02-26T18:09:33;1020.2;;;11.5;78.4
74431;BME280;62863;52.062;23.764;2024-02-26T18:14:47;1020.2;;;11.5;78.4
74431;BME280;62863;52.062;23.764;2024-02-26T18:19:47;1020.2;;;11.5;78.2
74431;BME280;62863;52.062;23.764;2024-02-26T18:24:59;1020.4;;;11.4;77.9
74431;BME280;62863;52.062;23.764;2024-02-26T18:30:02;1020.3;;;11.4;78
74431;BME280;62863;52.062;23.764;2024-02-26T18:34:55;1020.3;;;11.3;77.8
74431;BME280;62863;52.062;23.764;2024-02-26T18:39:47;1020.4;;;11.3;77.5
74431;BME280;62863;52.062;23.764;2024-02-26T18:44:23;1020.5;;;11.2;77.6
74431;BME280;62863;52.062;23.764;2024-02-26T18:49:39;1020.6;;;11.2;77.3
74431;BME280;62863;52.062;23.764;2024-02-26T18:54:57;1020.7;;;11.2;77.2
74431;BME280;62863;52.062;23.764;2024-02-26T18:59:23;1020.8;;;11.1;77.2
74431;BME280;62863;52.062;23.764;2024-02-26T19:04:23;1020.9;;;11;77.2
74431;BME280;62863;52.062;23.764;2024-02-26T19:09:55;1021.1;;;11;77.3
74431;BME280;62863;52.062;23.764;2024-02-26T19:15:05;1021.2;;;11;77.5
74431;BME280;62863;52.062;23.764;2024-02-26T19:19:35;1021.2;;;11;77.5
74431;BME280;62863;52.062;23.764;2024-02-26T19:24:33;1021.1;;;11;77.6
74431;BME280;62863;52.062;23.764;2024-02-26T19:29:39;1021.2;;;10.9;76.9
74431;BME280;62863;52.062;23.764;2024-02-26T19:34:23;1021.3;;;10.8;76.8
74431;BME280;62863;52.062;23.764;2024-02-26T19:39:45;1021.4;;;10.7;76.6
74431;BME280;62863;52.062;23.764;2024-02-26T19:44:39;1021.6;;;10.7;76.4
74431;BME280;62863;52.062;23.764;2024-02-26T19:49:45;1021.5;;;10.7;76.4
74431;BME280;62863;52.062;23.764;2024-02-26T19:55:05;1021.7;;;10.6;76.5
74431;BME280;62863;52.062;23.764;2024-02-26T19:59:53;1021.7;;;10.6;76.5
74431;BME280;62863;52.062;23.764;2024-02-26T20:05:03;1021.5;;;10.4;77
74431;BME280;62863;52.062;23.764;2024-02-26T20:10:03;1021.6;;;10.3;77.4
74431;BME280;62863;52.062;23.764;2024-02-26T20:14:23;1021.6;;;10.3;77.4
74431;BME280;62863;52.062;23.764;2024-02-26T20:20:03;1021.4;;;10;78.5
74431;BME280;62863;52.062;23.764;2024-02-26T20:25:03;1021.3;;;9.9;78.8
74431;BME280;62863;52.062;23.764;2024-02-26T20:29:53;1021.3;;;9.9;78.8
74431;BME280;62863;52.062;23.764;2024-02-26T20:34:31;1021.2;;;9.9;79.1
74431;BME280;62863;52.062;23.764;2024-02-26T20:39:39;1021.2;;;9.9;79
74431;BME280;62863;52.062;23.764;2024-02-26T20:44:33;1021.3;;;9.9;79
74431;BME280;62863;52.062;23.764;2024-02-26T20:50:03;1021.3;;;9.8;78.8
74431;BME280;62863;52.062;23.764;2024-02-26T20:54:41;1021.3;;;9.8;78.8
74431;BME280;62863;52.062;23.764;2024-02-26T21:00:03;1021.5;;;9.8;78.7
74431;BME280;62863;52.062;23.764;2024-02-26T21:04:23;1021.5;;;9.8;78.7
74431;BME280;62863;52.062;23.764;2024-02-26T21:09:23;1021.5;;;9.7;78.3
74431;BME280;62863;52.062;23.764;2024-02-26T21:14:31;1021.4;;;9.6;78.4
74431;BME280;62863;52.062;23.764;2024-02-26T21:19:53;1021.5;;;9.6;78.3
74431;BME280;62863;52.062;23.764;2024-02-26T21:24:31;1021.5;;;9.6;78.2
74431;BME280;62863;52.062;23.764;2024-02-26T21:29:31;1021.5;;;9.6;78.1
74431;BME280;62863;52.062;23.764;2024-02-26T21:34:55;1021.6;;;9.5;78.1
74431;BME280;62863;52.062;23.764;2024-02-26T21:39:31;1021.6;;;9.5;77.9
74431;BME280;62863;52.062;23.764;2024-02-26T21:45:03;1021.7;;;9.4;77.7
74431;BME280;62863;52.062;23.764;2024-02-26T21:50:05;1021.8;;;9.3;77.6
74431;BME280;62863;52.062;23.764;2024-02-26T21:55:03;1021.8;;;9.3;77.5
74431;BME280;62863;52.062;23.764;2024-02-26T22:00:05;1021.8;;;9.3;77.5
74431;BME280;62863;52.062;23.764;2024-02-26T22:04:41;1021.8;;;9.3;77.5
74431;BME280;62863;52.062;23.764;2024-02-26T22:09:39;1021.8;;;9.3;77.7
74431;BME280;62863;52.062;23.764;2024-02-26T22:14:49;1021.8;;;9.3;77.6
74431;BME280;62863;52.062;23.764;2024-02-26T22:19:55;1021.8;;;9.3;77.2
74431;BME280;62863;52.062;23.764;2024-02-26T22:25:05;1021.7;;;9.3;77.2
74431;BME280;62863;52.062;23.764;2024-02-26T22:29:23;1021.7;;;9.3;77.2
74431;BME280;62863;52.062;23.764;2024-02-26T22:35:05;1021.8;;;9.3;77
74431;BME280;62863;52.062;23.764;2024-02-26T22:39:47;1021.8;;;9.3;77
74431;BME280;62863;52.062;23.764;2024-02-26T22:44:23;1021.7;;;9.3;77
74431;BME280;62863;52.062;23.764;2024-02-26T22:49:31;1021.7;;;9.3;77
74431;BME280;62863;52.062;23.764;2024-02-26T22:54:23;1021.7;;;9.3;77
74431;BME280;62863;52.062;23.764;2024-02-26T22:59:37;1021.7;;;9.4;77
74431;BME280;62863;52.062;23.764;2024-02-26T23:04:51;1021.7;;;9.4;77.4
74431;BME280;62863;52.062;23.764;2024-02-26T23:09:47;1021.8;;;9.5;77.3
74431;BME280;62863;52.062;23.764;2024-02-26T23:14:39;1021.8;;;9.5;77.1
74431;BME280;62863;52.062;23.764;2024-02-26T23:19:25;1021.9;;;9.5;77.2
74431;BME280;62863;52.062;23.764;2024-02-26T23:24:53;1022;;;9.5;77
74431;BME280;62863;52.062;23.764;2024-02-26T23:29:23;1022;;;9.5;77
74431;BME280;62863;52.062;23.764;2024-02-26T23:34:37;1022.1;;;9.5;76.8
74431;BME280;62863;52.062;23.764;2024-02-26T23:39:39;1022.1;;;9.6;76.8
74431;BME280;62863;52.062;23.764;2024-02-26T23:44:53;1022.2;;;9.6;76.6
74431;BME280;62863;52.062;23.764;2024-02-26T23:49:45;1022.2;;;9.7;76.5
74431;BME280;62863;52.062;23.764;2024-02-26T23:54:53;1022.3;;;9.7;76.4
74431;BME280;62863;52.062;23.764;2024-02-26T23:59:31;1022.3;;;9.7;76.7
